Time;durP1;ratioP1;P1;durP2;ratioP2;P2;SDS_P1;SDS_P2;PMS_P1;PMS_P2;Temp;Humidity;BMP_temperature;BMP_pressure;BME280_temperature;BME280_humidity;BME280_pressure;Samples;Min_cycle;Max_cycle;Signal;HPM_P1;HPM_P2
2022/09/10 00:01:41;;;;;;;;;;;14.40;99.90;;;;;;5051173;28;20494;-71
2022/09/10 00:04:11;;;;;;;;;;;14.50;99.90;;;;;;5044572;28;19929;-71
2022/09/10 00:06:37;;;;;;;;;;;14.30;99.90;;;;;;5068241;28;19929;-72
2022/09/10 00:09:03;;;;;;;;;;;14.30;99.90;;;;;;5064072;28;20392;-70
2022/09/10 00:11:30;;;;;;;;;;;14.30;99.90;;;;;;5050271;28;19932;-70
2022/09/10 00:13:56;;;;;;;;;;;14.30;99.90;;;;;;5047804;28;20321;-71
2022/09/10 00:16:22;;;;;;;;;;;14.30;99.90;;;;;;5066030;28;19920;-70
2022/09/10 00:18:50;;;;;;;;;;;14.20;99.90;;;;;;5047114;28;19920;-71
2022/09/10 00:21:16;;;;;;;;;;;14.30;99.90;;;;;;5044605;28;20008;-72
2022/09/10 00:23:44;;;;;;;;;;;14.20;99.90;;;;;;5070349;28;20011;-71
2022/09/10 00:26:10;;;;;;;;;;;14.30;99.90;;;;;;5045769;28;19925;-71
2022/09/10 00:28:36;;;;;;;;;;;14.20;99.90;;;;;;5049106;28;19921;-71
2022/09/10 00:31:02;;;;;;;;;;;14.30;99.90;;;;;;5045032;28;19974;-71
2022/09/10 00:33:28;;;;;;;;;;;14.30;99.90;;;;;;5063371;28;19928;-70
2022/09/10 00:35:56;;;;;;;;;;;14.30;99.90;;;;;;5049270;28;19921;-71
2022/09/10 00:38:31;;;;;;;;;;;14.30;99.90;;;;;;5045170;28;19920;-70
2022/09/10 00:41:07;;;;;;;;;;;14.40;99.90;;;;;;5071106;28;20502;-70
2022/09/10 00:43:50;;;;;;;;;;;14.30;99.90;;;;;;5061379;28;19925;-70
2022/09/10 00:46:27;;;;;;;;;;;14.40;99.90;;;;;;5070741;28;19931;-71
2022/09/10 00:48:55;;;;;;;;;;;14.40;99.90;;;;;;5050107;28;20335;-70
2022/09/10 00:51:21;;;;;;;;;;;14.40;99.90;;;;;;5074832;28;20403;-70
2022/09/10 00:53:46;;;;;;;;;;;14.50;99.90;;;;;;5055224;28;19920;-69
2022/09/10 00:56:13;;;;;;;;;;;14.50;99.90;;;;;;5054013;28;20015;-70
2022/09/10 00:58:38;;;;;;;;;;;14.50;99.90;;;;;;5045546;28;20124;-69
2022/09/10 01:01:05;;;;;;;;;;;14.60;99.90;;;;;;5047493;28;19926;-70
2022/09/10 01:03:31;;;;;;;;;;;14.60;99.90;;;;;;5044590;28;19920;-70
2022/09/10 01:05:57;;;;;;;;;;;14.60;99.90;;;;;;5063287;28;20027;-69
2022/09/10 01:08:22;;;;;;;;;;;14.60;99.90;;;;;;5048884;28;20391;-69
2022/09/10 01:10:57;;;;;;;;;;;14.60;99.90;;;;;;5047707;28;19924;-69
2022/09/10 01:13:35;;;;;;;;;;;14.60;99.90;;;;;;5059743;28;19927;-69
2022/09/10 01:16:13;;;;;;;;;;;14.70;99.90;;;;;;5047467;28;19967;-69
2022/09/10 01:18:54;;;;;;;;;;;14.60;99.90;;;;;;5045981;28;19925;-69
2022/09/10 01:21:26;;;;;;;;;;;14.70;99.90;;;;;;5068823;28;19920;-70
2022/09/10 01:23:56;;;;;;;;;;;14.60;99.90;;;;;;5068152;28;19943;-71
2022/09/10 01:26:41;;;;;;;;;;;14.50;99.90;;;;;;5051269;28;20018;-71
2022/09/10 01:29:14;;;;;;;;;;;14.50;99.90;;;;;;5051809;28;19935;-71
2022/09/10 01:31:54;;;;;;;;;;;14.50;99.90;;;;;;5063246;28;20009;-71
2022/09/10 01:34:22;;;;;;;;;;;14.40;99.90;;;;;;5062288;28;20003;-71
2022/09/10 01:36:50;;;;;;;;;;;14.40;99.90;;;;;;5048941;28;19920;-70
2022/09/10 01:39:18;;;;;;;;;;;14.40;99.90;;;;;;5050095;28;19943;-69
2022/09/10 01:41:44;;;;;;;;;;;14.30;99.90;;;;;;5054502;28;20372;-70
2022/09/10 01:44:29;;;;;;;;;;;14.30;99.90;;;;;;5054170;28;19934;-69
2022/09/10 01:46:59;;;;;;;;;;;14.30;99.90;;;;;;5059598;28;20398;-69
2022/09/10 01:49:35;;;;;;;;;;;14.40;99.90;;;;;;5065833;28;20305;-70
2022/09/10 01:52:01;;;;;;;;;;;14.30;99.90;;;;;;5043692;28;19920;-70
2022/09/10 01:54:39;;;;;;;;;;;14.20;99.90;;;;;;5043425;28;19924;-69
2022/09/10 01:57:15;;;;;;;;;;;14.20;99.90;;;;;;5043768;28;19920;-69
2022/09/10 01:59:53;;;;;;;;;;;14.20;99.90;;;;;;5062034;28;20292;-69
2022/09/10 02:02:23;;;;;;;;;;;14.20;99.90;;;;;;5065806;28;19921;-68
2022/09/10 02:04:50;;;;;;;;;;;14.20;99.90;;;;;;5063541;28;19931;-68
2022/09/10 02:07:18;;;;;;;;;;;14.20;99.90;;;;;;5045024;28;20005;-68
2022/09/10 02:09:44;;;;;;;;;;;14.20;99.90;;;;;;5042211;28;20019;-68
2022/09/10 02:12:17;;;;;;;;;;;14.20;99.90;;;;;;5045724;28;20375;-68
2022/09/10 02:14:44;;;;;;;;;;;14.10;99.90;;;;;;5049654;28;19920;-68
2022/09/10 02:17:10;;;;;;;;;;;14.10;99.90;;;;;;5066453;28;20066;-68
2022/09/10 02:19:36;;;;;;;;;;;14.10;99.90;;;;;;5042340;28;20250;-69
2022/09/10 02:22:02;;;;;;;;;;;14.10;99.90;;;;;;5065310;28;20014;-70
2022/09/10 02:24:27;;;;;;;;;;;14.10;99.90;;;;;;5065943;28;19959;-70
2022/09/10 02:26:53;;;;;;;;;;;14.10;99.90;;;;;;5061062;28;20284;-70
2022/09/10 02:29:19;;;;;;;;;;;14.20;99.90;;;;;;5062535;28;19924;-69
2022/09/10 02:31:45;;;;;;;;;;;14.10;99.90;;;;;;5045217;28;20010;-69
2022/09/10 02:34:10;;;;;;;;;;;14.10;99.90;;;;;;5045586;28;19920;-69
2022/09/10 02:36:36;;;;;;;;;;;14.10;99.90;;;;;;5062937;28;20291;-70
2022/09/10 02:39:03;;;;;;;;;;;14.20;99.90;;;;;;5060730;28;19966;-69
2022/09/10 02:41:31;;;;;;;;;;;14.20;99.90;;;;;;5044802;28;20037;-69
2022/09/10 02:43:56;;;;;;;;;;;14.10;99.90;;;;;;5048554;28;19970;-69
2022/09/10 02:46:22;;;;;;;;;;;14.10;99.90;;;;;;5043298;28;19921;-69
2022/09/10 02:48:47;;;;;;;;;;;14.10;99.90;;;;;;5048175;28;20275;-69
2022/09/10 02:51:13;;;;;;;;;;;14.10;99.90;;;;;;5066404;28;19916;-69
2022/09/10 02:53:38;;;;;;;;;;;14.30;99.90;;;;;;5060683;28;19925;-69
2022/09/10 02:56:04;;;;;;;;;;;14.10;99.90;;;;;;5040767;28;19927;-70
2022/09/10 02:58:30;;;;;;;;;;;14.10;99.90;;;;;;5049499;28;20330;-70
2022/09/10 03:01:09;;;;;;;;;;;14.10;99.90;;;;;;5071513;28;19920;-70
2022/09/10 03:03:38;;;;;;;;;;;14.00;99.90;;;;;;5046005;28;19928;-70
2022/09/10 03:06:03;;;;;;;;;;;14.00;99.90;;;;;;5067267;28;20421;-69
2022/09/10 03:08:29;;;;;;;;;;;14.00;99.90;;;;;;5063791;28;19925;-70
2022/09/10 03:10:58;;;;;;;;;;;14.00;99.90;;;;;;5065359;28;19928;-72
2022/09/10 03:13:24;;;;;;;;;;;14.00;99.90;;;;;;5057743;28;19920;-72
2022/09/10 03:15:50;;;;;;;;;;;14.00;99.90;;;;;;5042575;28;19920;-71
2022/09/10 03:18:16;;;;;;;;;;;14.00;99.90;;;;;;5061893;28;19932;-71
2022/09/10 03:20:42;;;;;;;;;;;14.00;99.90;;;;;;5037048;28;20253;-71
2022/09/10 03:23:07;;;;;;;;;;;14.10;99.90;;;;;;5032210;28;19920;-70
2022/09/10 03:25:34;;;;;;;;;;;14.00;99.90;;;;;;5033079;28;20394;-71
2022/09/10 03:27:59;;;;;;;;;;;14.10;99.90;;;;;;5037208;28;19924;-71
2022/09/10 03:30:25;;;;;;;;;;;14.10;99.90;;;;;;5032530;28;20015;-71
2022/09/10 03:32:52;;;;;;;;;;;14.10;99.90;;;;;;5050240;28;19928;-71
2022/09/10 03:35:17;;;;;;;;;;;14.10;99.90;;;;;;5036084;28;19956;-70
2022/09/10 03:37:43;;;;;;;;;;;14.10;99.90;;;;;;5054261;28;20349;-71
2022/09/10 03:40:09;;;;;;;;;;;14.10;99.90;;;;;;5054471;28;19968;-71
2022/09/10 03:42:35;;;;;;;;;;;14.00;99.90;;;;;;5035960;28;20023;-71
2022/09/10 03:45:00;;;;;;;;;;;14.00;99.90;;;;;;5035455;28;20007;-71
2022/09/10 03:47:26;;;;;;;;;;;13.90;99.90;;;;;;5037028;28;19928;-71
2022/09/10 03:49:51;;;;;;;;;;;14.00;99.90;;;;;;5034342;28;19923;-71
2022/09/10 03:52:17;;;;;;;;;;;13.90;99.90;;;;;;5030247;28;20062;-70
2022/09/10 03:54:44;;;;;;;;;;;13.90;99.90;;;;;;5054679;28;19927;-70
2022/09/10 03:57:09;;;;;;;;;;;13.90;99.90;;;;;;5035953;28;19979;-70
2022/09/10 03:59:36;;;;;;;;;;;13.90;99.90;;;;;;5053531;28;20064;-71
2022/09/10 04:02:01;;;;;;;;;;;13.90;99.90;;;;;;5053058;28;20283;-71
2022/09/10 04:04:28;;;;;;;;;;;13.90;99.90;;;;;;5031743;28;19921;-71
2022/09/10 04:06:53;;;;;;;;;;;13.90;99.90;;;;;;5034028;28;19925;-71
2022/09/10 04:09:19;;;;;;;;;;;13.80;99.90;;;;;;5052821;28;20364;-71
2022/09/10 04:11:45;;;;;;;;;;;13.90;99.90;;;;;;5035283;28;20692;-70
2022/09/10 04:14:10;;;;;;;;;;;13.90;99.90;;;;;;5035374;28;19920;-70
2022/09/10 04:16:36;;;;;;;;;;;14.00;99.90;;;;;;5054504;28;19916;-70
2022/09/10 04:19:01;;;;;;;;;;;14.00;99.90;;;;;;5046930;28;19921;-71
2022/09/10 04:21:27;;;;;;;;;;;14.00;99.90;;;;;;5028687;28;19921;-71
2022/09/10 04:23:53;;;;;;;;;;;14.10;99.90;;;;;;5031907;28;19975;-70
2022/09/10 04:26:19;;;;;;;;;;;14.10;99.90;;;;;;5048698;28;20364;-71
2022/09/10 04:28:45;;;;;;;;;;;14.10;99.90;;;;;;5027589;28;20349;-71
2022/09/10 04:31:11;;;;;;;;;;;14.10;99.90;;;;;;5043827;28;19953;-71
2022/09/10 04:33:37;;;;;;;;;;;14.10;99.90;;;;;;5045136;28;19967;-71
2022/09/10 04:36:03;;;;;;;;;;;14.70;99.90;;;;;;5026364;28;19921;-71
2022/09/10 04:38:31;;;;;;;;;;;14.20;99.90;;;;;;5045102;28;19927;-71
2022/09/10 04:40:58;;;;;;;;;;;14.20;99.90;;;;;;5026953;28;19946;-71
2022/09/10 04:43:26;;;;;;;;;;;14.20;99.90;;;;;;5044863;28;20281;-71
2022/09/10 04:45:54;;;;;;;;;;;14.20;99.90;;;;;;5027020;28;20368;-70
2022/09/10 04:48:20;;;;;;;;;;;14.30;99.90;;;;;;5046809;28;20327;-71
2022/09/10 04:50:45;;;;;;;;;;;14.30;99.90;;;;;;5049914;28;20325;-71
2022/09/10 04:53:11;;;;;;;;;;;14.40;99.90;;;;;;5046893;28;20388;-72
2022/09/10 04:55:38;;;;;;;;;;;14.40;99.90;;;;;;5043172;28;20293;-71
2022/09/10 04:58:04;;;;;;;;;;;14.30;99.90;;;;;;5026506;28;19920;-70
2022/09/10 05:00:30;;;;;;;;;;;14.30;99.90;;;;;;5028982;28;20348;-71
2022/09/10 05:02:56;;;;;;;;;;;14.30;99.90;;;;;;5040897;28;19984;-71
2022/09/10 05:05:21;;;;;;;;;;;14.40;99.90;;;;;;5046461;28;20059;-71
2022/09/10 05:07:47;;;;;;;;;;;14.40;99.90;;;;;;5044670;28;19921;-71
2022/09/10 05:10:14;;;;;;;;;;;14.40;99.90;;;;;;5025579;28;19925;-71
2022/09/10 05:12:39;;;;;;;;;;;14.40;99.90;;;;;;5026556;28;19931;-71
2022/09/10 05:15:06;;;;;;;;;;;14.40;99.90;;;;;;5041073;28;19925;-71
2022/09/10 05:17:32;;;;;;;;;;;14.40;99.90;;;;;;5028577;28;19943;-71
2022/09/10 05:19:58;;;;;;;;;;;14.40;99.90;;;;;;5036208;28;19927;-72
2022/09/10 05:22:23;;;;;;;;;;;14.40;99.90;;;;;;5045143;28;19920;-72
2022/09/10 05:24:49;;;;;;;;;;;14.40;99.90;;;;;;5043528;28;19925;-72
2022/09/10 05:27:15;;;;;;;;;;;14.50;99.90;;;;;;5062275;28;19982;-71
2022/09/10 05:29:41;;;;;;;;;;;14.60;99.90;;;;;;5045720;28;19947;-71
2022/09/10 05:32:08;;;;;;;;;;;14.50;99.90;;;;;;5047431;28;19959;-70
2022/09/10 05:34:33;;;;;;;;;;;14.50;99.90;;;;;;5065916;28;20015;-72
2022/09/10 05:36:59;;;;;;;;;;;14.50;99.90;;;;;;5060467;28;20007;-71
2022/09/10 05:39:24;;;;;;;;;;;14.50;99.90;;;;;;5044291;28;19943;-71
2022/09/10 05:41:51;;;;;;;;;;;14.80;99.90;;;;;;5061279;28;20010;-71
2022/09/10 05:44:17;;;;;;;;;;;14.50;99.90;;;;;;5065960;28;19921;-71
2022/09/10 05:46:43;;;;;;;;;;;14.50;99.90;;;;;;5046216;28;19946;-71
2022/09/10 05:49:09;;;;;;;;;;;14.60;99.90;;;;;;5050598;28;20553;-71
2022/09/10 05:51:35;;;;;;;;;;;14.60;99.90;;;;;;5059612;28;19921;-71
2022/09/10 05:54:00;;;;;;;;;;;14.60;99.90;;;;;;5045795;28;19924;-71
2022/09/10 05:56:26;;;;;;;;;;;14.70;99.90;;;;;;5062374;28;20368;-71
2022/09/10 05:58:51;;;;;;;;;;;14.70;99.90;;;;;;5042590;28;19920;-71
2022/09/10 06:01:17;;;;;;;;;;;14.70;99.90;;;;;;5046438;28;19928;-71
2022/09/10 06:03:43;;;;;;;;;;;14.70;99.90;;;;;;5045839;28;19921;-71
2022/09/10 06:06:08;;;;;;;;;;;14.70;99.90;;;;;;5043988;28;19921;-71
2022/09/10 06:08:34;;;;;;;;;;;14.70;99.90;;;;;;5048265;28;19916;-70
2022/09/10 06:11:02;;;;;;;;;;;14.70;99.90;;;;;;5060224;28;20014;-71
2022/09/10 06:13:28;;;;;;;;;;;14.70;99.90;;;;;;5047059;28;19916;-71
2022/09/10 06:15:53;;;;;;;;;;;14.70;99.90;;;;;;5055010;28;19927;-71
2022/09/10 06:18:19;;;;;;;;;;;14.70;99.90;;;;;;5044336;28;20300;-70
2022/09/10 06:20:46;;;;;;;;;;;14.70;99.90;;;;;;5047808;28;19921;-70
2022/09/10 06:23:13;;;;;;;;;;;14.70;99.90;;;;;;5069365;28;19920;-72
2022/09/10 06:25:38;;;;;;;;;;;14.80;99.90;;;;;;5067144;28;19974;-72
2022/09/10 06:28:04;;;;;;;;;;;14.90;99.90;;;;;;5043604;28;19921;-70
2022/09/10 06:30:30;;;;;;;;;;;15.10;99.90;;;;;;5060661;28;20011;-71
2022/09/10 06:32:55;;;;;;;;;;;14.90;99.90;;;;;;5046642;28;19924;-72
2022/09/10 06:35:21;;;;;;;;;;;14.90;99.90;;;;;;5043183;28;20444;-71
2022/09/10 06:37:46;;;;;;;;;;;15.00;99.90;;;;;;5041902;28;19972;-71
2022/09/10 06:40:12;;;;;;;;;;;15.10;99.90;;;;;;5065897;28;19920;-72
2022/09/10 06:42:37;;;;;;;;;;;15.20;99.90;;;;;;5064078;28;19927;-71
2022/09/10 06:45:03;;;;;;;;;;;15.20;99.90;;;;;;5065164;28;20414;-71
2022/09/10 06:47:29;;;;;;;;;;;15.20;99.90;;;;;;5042611;28;19920;-72
2022/09/10 06:49:54;;;;;;;;;;;15.30;99.90;;;;;;5047266;28;20398;-70
2022/09/10 06:52:20;;;;;;;;;;;15.20;99.90;;;;;;5045296;28;20380;-71
2022/09/10 06:54:47;;;;;;;;;;;15.20;99.90;;;;;;5049999;28;19920;-71
2022/09/10 06:57:12;;;;;;;;;;;15.30;99.90;;;;;;5047528;28;19927;-70
2022/09/10 06:59:38;;;;;;;;;;;15.30;99.90;;;;;;5045172;28;20022;-70
2022/09/10 07:02:03;;;;;;;;;;;15.30;99.90;;;;;;5047142;28;19990;-73
2022/09/10 07:04:29;;;;;;;;;;;15.30;99.90;;;;;;5063710;28;19978;-70
2022/09/10 07:06:57;;;;;;;;;;;15.40;99.90;;;;;;5043757;28;20121;-73
2022/09/10 07:09:23;;;;;;;;;;;15.40;99.90;;;;;;5066485;28;19921;-70
2022/09/10 07:11:48;;;;;;;;;;;15.40;99.90;;;;;;5049629;28;19927;-70
2022/09/10 07:14:14;;;;;;;;;;;15.50;99.90;;;;;;5068413;28;19920;-71
2022/09/10 07:16:40;;;;;;;;;;;15.70;99.90;;;;;;5064667;28;19924;-73
2022/09/10 07:19:06;;;;;;;;;;;15.90;99.90;;;;;;5064752;28;19963;-71
2022/09/10 07:21:35;;;;;;;;;;;16.00;99.90;;;;;;5071031;28;20019;-74
2022/09/10 07:24:01;;;;;;;;;;;16.10;99.90;;;;;;5066685;28;20066;-72
2022/09/10 07:26:27;;;;;;;;;;;16.30;99.90;;;;;;5048498;28;20385;-71
2022/09/10 07:28:53;;;;;;;;;;;16.30;99.90;;;;;;5053893;28;19931;-72
2022/09/10 07:31:29;;;;;;;;;;;16.30;99.90;;;;;;5047366;28;19924;-69
2022/09/10 07:34:00;;;;;;;;;;;16.40;99.90;;;;;;5024245;28;20414;-70
2022/09/10 07:36:28;;;;;;;;;;;16.40;99.90;;;;;;5067965;28;19974;-70
2022/09/10 07:38:56;;;;;;;;;;;16.60;99.90;;;;;;5048955;28;19923;-70
2022/09/10 07:41:22;;;;;;;;;;;16.60;99.90;;;;;;5068219;28;19967;-69
2022/09/10 07:43:52;;;;;;;;;;;16.70;99.90;;;;;;5051500;28;19968;-70
2022/09/10 07:46:19;;;;;;;;;;;16.60;99.90;;;;;;5052703;28;19928;-69
2022/09/10 07:48:45;;;;;;;;;;;16.80;99.90;;;;;;5067154;28;19927;-70
2022/09/10 07:51:10;;;;;;;;;;;16.80;99.90;;;;;;5047982;28;20279;-69
2022/09/10 07:53:36;;;;;;;;;;;16.90;99.90;;;;;;5050494;28;20055;-70
2022/09/10 07:56:04;;;;;;;;;;;16.80;99.90;;;;;;5046426;28;19921;-74
2022/09/10 07:58:30;;;;;;;;;;;16.80;99.90;;;;;;5047957;28;19977;-71
2022/09/10 08:00:58;;;;;;;;;;;16.80;99.90;;;;;;5044637;28;20021;-72
2022/09/10 08:03:28;;;;;;;;;;;16.80;99.90;;;;;;5057566;28;19921;-70
2022/09/10 08:05:54;;;;;;;;;;;16.90;99.90;;;;;;5048280;28;20010;-75
2022/09/10 08:08:20;;;;;;;;;;;16.90;99.90;;;;;;5054213;28;20011;-76
2022/09/10 08:10:45;;;;;;;;;;;16.90;99.90;;;;;;5054227;28;20621;-76
2022/09/10 08:13:11;;;;;;;;;;;17.00;99.90;;;;;;5035349;28;20331;-76
2022/09/10 08:15:41;;;;;;;;;;;17.00;99.90;;;;;;5054095;28;20369;-75
2022/09/10 08:18:06;;;;;;;;;;;17.00;99.90;;;;;;5030229;28;20435;-74
2022/09/10 08:20:32;;;;;;;;;;;17.00;99.90;;;;;;5053356;28;19920;-75
2022/09/10 08:22:58;;;;;;;;;;;17.00;99.90;;;;;;5044847;28;19920;-71
2022/09/10 08:25:24;;;;;;;;;;;17.20;99.90;;;;;;5044994;28;20412;-72
2022/09/10 08:27:49;;;;;;;;;;;17.30;99.90;;;;;;5045538;28;20007;-74
2022/09/10 08:30:15;;;;;;;;;;;17.40;99.90;;;;;;5044041;28;20368;-74
2022/09/10 08:32:40;;;;;;;;;;;17.50;99.90;;;;;;5045910;28;19920;-71
2022/09/10 08:35:06;;;;;;;;;;;17.60;99.90;;;;;;5043262;28;19921;-72
2022/09/10 08:37:33;;;;;;;;;;;17.80;99.90;;;;;;5046392;28;19920;-72
2022/09/10 08:39:58;;;;;;;;;;;17.90;99.90;;;;;;5049412;28;19927;-71
2022/09/10 08:42:26;;;;;;;;;;;17.90;99.90;;;;;;5073609;28;20014;-73
2022/09/10 08:45:10;;;;;;;;;;;18.00;99.90;;;;;;5055187;28;19920;-75
2022/09/10 08:47:52;;;;;;;;;;;18.10;99.90;;;;;;5050138;28;19920;-71
2022/09/10 08:50:27;;;;;;;;;;;18.10;99.90;;;;;;5063448;28;19920;-70
2022/09/10 08:53:00;;;;;;;;;;;18.20;99.90;;;;;;5072057;28;20276;-70
2022/09/10 08:55:31;;;;;;;;;;;18.20;99.90;;;;;;5072379;28;19928;-70
2022/09/10 08:57:59;;;;;;;;;;;18.10;99.90;;;;;;5054974;28;19927;-69
2022/09/10 09:00:31;;;;;;;;;;;18.10;99.90;;;;;;5055487;28;20010;-70
2022/09/10 09:03:01;;;;;;;;;;;18.10;99.90;;;;;;5050816;28;19920;-70
2022/09/10 09:05:29;;;;;;;;;;;18.10;99.90;;;;;;5064047;28;19943;-70
2022/09/10 09:07:57;;;;;;;;;;;18.00;99.90;;;;;;5061512;28;19916;-70
2022/09/10 09:10:43;;;;;;;;;;;18.00;99.90;;;;;;5063048;28;19920;-69
2022/09/10 09:13:16;;;;;;;;;;;18.00;99.90;;;;;;5051666;28;19974;-71
2022/09/10 09:16:01;;;;;;;;;;;17.90;99.90;;;;;;5072010;28;19920;-71
2022/09/10 09:18:29;;;;;;;;;;;17.90;99.90;;;;;;5050213;28;19932;-70
2022/09/10 09:20:56;;;;;;;;;;;17.80;99.90;;;;;;5053661;28;19920;-72
2022/09/10 09:23:34;;;;;;;;;;;17.80;99.90;;;;;;5072061;28;19942;-71
2022/09/10 09:26:18;;;;;;;;;;;18.20;99.90;;;;;;5047343;28;19970;-69
2022/09/10 09:28:44;;;;;;;;;;;17.80;99.90;;;;;;5064612;28;19951;-71
2022/09/10 09:31:26;;;;;;;;;;;17.80;99.90;;;;;;5052508;28;20517;-70
2022/09/10 09:33:54;;;;;;;;;;;17.80;99.90;;;;;;5046583;28;19964;-70
2022/09/10 09:36:25;;;;;;;;;;;17.80;99.90;;;;;;5044565;28;19924;-70
2022/09/10 09:38:51;;;;;;;;;;;17.80;99.90;;;;;;5061073;28;20011;-70
2022/09/10 09:41:34;;;;;;;;;;;17.90;99.90;;;;;;5062457;28;20332;-69
2022/09/10 09:44:04;;;;;;;;;;;18.00;99.90;;;;;;5049831;28;20331;-71
2022/09/10 09:46:30;;;;;;;;;;;18.00;99.90;;;;;;5047081;28;19928;-70
2022/09/10 09:48:57;;;;;;;;;;;18.20;99.90;;;;;;5062608;28;19920;-69
2022/09/10 09:51:24;;;;;;;;;;;18.30;99.90;;;;;;5062447;28;20447;-69
2022/09/10 09:54:02;;;;;;;;;;;18.30;99.90;;;;;;5060764;28;19940;-72
2022/09/10 09:56:34;;;;;;;;;;;18.50;99.90;;;;;;5064167;28;20395;-76
2022/09/10 09:59:06;;;;;;;;;;;18.50;99.90;;;;;;5067607;28;19929;-73
2022/09/10 10:01:32;;;;;;;;;;;18.70;99.90;;;;;;5052038;28;19921;-73
2022/09/10 10:04:00;;;;;;;;;;;18.70;99.90;;;;;;5048638;28;19920;-73
2022/09/10 10:06:28;;;;;;;;;;;18.70;99.90;;;;;;5065402;28;19923;-80
2022/09/10 10:08:55;;;;;;;;;;;18.70;99.90;;;;;;5066202;28;19920;-67
2022/09/10 10:11:21;;;;;;;;;;;18.60;99.90;;;;;;5040666;28;19920;-66
2022/09/10 10:13:50;;;;;;;;;;;18.70;99.90;;;;;;5065130;28;19939;-66
2022/09/10 10:16:16;;;;;;;;;;;18.70;99.90;;;;;;5067418;28;19920;-66
2022/09/10 10:18:42;;;;;;;;;;;18.70;99.90;;;;;;5061134;28;19927;-67
2022/09/10 10:21:11;;;;;;;;;;;18.90;99.90;;;;;;5064400;28;19921;-68
2022/09/10 10:23:37;;;;;;;;;;;19.00;99.90;;;;;;5046107;28;20402;-65
2022/09/10 10:26:21;;;;;;;;;;;19.00;99.90;;;;;;5046190;28;19942;-69
2022/09/10 10:28:49;;;;;;;;;;;19.10;99.90;;;;;;5056899;28;20318;-67
2022/09/10 10:31:15;;;;;;;;;;;19.40;99.90;;;;;;5047280;28;19931;-67
2022/09/10 10:34:01;;;;;;;;;;;19.50;99.90;;;;;;5064467;28;20379;-67
2022/09/10 10:36:31;;;;;;;;;;;19.70;99.90;;;;;;5062461;28;19924;-67
2022/09/10 10:39:03;;;;;;;;;;;19.90;99.90;;;;;;5045116;28;19920;-68
2022/09/10 10:41:43;;;;;;;;;;;19.90;99.90;;;;;;5065019;28;19974;-67
2022/09/10 10:44:31;;;;;;;;;;;20.10;99.90;;;;;;5067220;28;19920;-69
2022/09/10 10:47:04;;;;;;;;;;;20.20;99.90;;;;;;5046682;28;19920;-68
2022/09/10 10:49:41;;;;;;;;;;;20.50;99.90;;;;;;5051380;28;20019;-66
2022/09/10 10:52:14;;;;;;;;;;;20.50;99.90;;;;;;5070746;28;19928;-67
2022/09/10 10:54:58;;;;;;;;;;;20.70;99.90;;;;;;5047769;28;20410;-67
2022/09/10 10:57:39;;;;;;;;;;;20.90;99.90;;;;;;5063261;28;19924;-67
2022/09/10 11:00:08;;;;;;;;;;;20.90;99.90;;;;;;5050594;28;19959;-69
2022/09/10 11:02:53;;;;;;;;;;;21.10;99.90;;;;;;5065925;28;19920;-70
2022/09/10 11:05:40;;;;;;;;;;;21.30;99.90;;;;;;5053821;28;20428;-71
2022/09/10 11:08:13;;;;;;;;;;;21.40;99.90;;;;;;5056509;28;19927;-66
2022/09/10 11:10:39;;;;;;;;;;;21.60;99.90;;;;;;5045364;28;19920;-67
2022/09/10 11:13:04;;;;;;;;;;;21.80;99.90;;;;;;5046043;28;20002;-67
2022/09/10 11:15:32;;;;;;;;;;;22.00;99.90;;;;;;5046807;28;20015;-69
2022/09/10 11:18:16;;;;;;;;;;;21.90;99.90;;;;;;5064781;28;19920;-67
2022/09/10 11:21:05;;;;;;;;;;;21.90;99.90;;;;;;5052804;28;19966;-67
2022/09/10 11:23:36;;;;;;;;;;;21.80;99.90;;;;;;5055106;28;19924;-68
2022/09/10 11:26:02;;;;;;;;;;;21.50;99.90;;;;;;5066731;28;19924;-68
2022/09/10 11:28:30;;;;;;;;;;;21.40;99.90;;;;;;5047469;28;20003;-68
2022/09/10 11:31:01;;;;;;;;;;;21.50;99.90;;;;;;5045868;28;19982;-68
2022/09/10 11:33:30;;;;;;;;;;;21.70;99.90;;;;;;5048849;28;19926;-72
2022/09/10 11:35:59;;;;;;;;;;;22.40;99.90;;;;;;5068162;28;19920;-66
2022/09/10 11:38:39;;;;;;;;;;;23.00;99.90;;;;;;5065313;28;20295;-69
2022/09/10 11:41:15;;;;;;;;;;;23.50;99.90;;;;;;5051380;28;20293;-68
2022/09/10 11:43:43;;;;;;;;;;;23.90;99.90;;;;;;5063163;28;19925;-66
2022/09/10 11:46:14;;;;;;;;;;;23.80;99.90;;;;;;5063979;28;20064;-66
2022/09/10 11:48:43;;;;;;;;;;;23.50;99.90;;;;;;5068405;28;20019;-67
2022/09/10 11:51:23;;;;;;;;;;;23.40;99.90;;;;;;5066998;28;19920;-75
2022/09/10 11:53:49;;;;;;;;;;;23.10;99.90;;;;;;5070084;28;19920;-75
2022/09/10 11:56:21;;;;;;;;;;;22.80;99.90;;;;;;5067050;28;19928;-72
2022/09/10 11:58:50;;;;;;;;;;;22.70;99.90;;;;;;5073574;28;20337;-73
2022/09/10 12:01:24;;;;;;;;;;;22.70;99.90;;;;;;5051876;28;19927;-79
2022/09/10 12:04:03;;;;;;;;;;;22.50;99.90;;;;;;5047956;28;20430;-76
2022/09/10 12:06:36;;;;;;;;;;;22.60;99.90;;;;;;5047992;28;19924;-79
2022/09/10 12:09:22;;;;;;;;;;;22.60;99.90;;;;;;5061640;28;19967;-77
2022/09/10 12:11:47;;;;;;;;;;;22.70;99.90;;;;;;5045223;28;19925;-78
2022/09/10 12:14:15;;;;;;;;;;;22.70;99.90;;;;;;5068782;28;19927;-78
2022/09/10 12:16:44;;;;;;;;;;;22.60;99.90;;;;;;5044714;28;20023;-78
2022/09/10 12:19:21;;;;;;;;;;;22.60;99.90;;;;;;5068667;28;20329;-78
2022/09/10 12:21:51;;;;;;;;;;;22.90;99.90;;;;;;5071581;28;19927;-80
2022/09/10 12:24:27;;;;;;;;;;;23.30;99.90;;;;;;5067752;28;19932;-75
2022/09/10 12:26:57;;;;;;;;;;;23.20;99.90;;;;;;5047543;28;20342;-77
2022/09/10 12:29:25;;;;;;;;;;;23.10;99.90;;;;;;5054652;28;19924;-75
2022/09/10 12:32:11;;;;;;;;;;;23.20;99.90;;;;;;5051743;28;19963;-74
2022/09/10 12:34:37;;;;;;;;;;;23.20;99.90;;;;;;5053881;28;19947;-76
2022/09/10 12:37:16;;;;;;;;;;;23.40;99.90;;;;;;5070611;28;20342;-76
2022/09/10 12:39:42;;;;;;;;;;;23.50;99.90;;;;;;5051960;28;19928;-77
2022/09/10 12:42:27;;;;;;;;;;;23.70;99.90;;;;;;5051377;28;19921;-77
2022/09/10 12:44:53;;;;;;;;;;;23.80;99.90;;;;;;5071462;28;19927;-79
2022/09/10 12:47:25;;;;;;;;;;;23.90;99.90;;;;;;5053135;28;19920;-79
2022/09/10 12:49:50;;;;;;;;;;;24.10;99.90;;;;;;5049023;28;19921;-78
2022/09/10 12:52:21;;;;;;;;;;;24.00;99.90;;;;;;5046394;28;20269;-74
2022/09/10 12:55:01;;;;;;;;;;;24.00;99.90;;;;;;5050787;28;19920;-79
2022/09/10 12:57:34;;;;;;;;;;;23.90;99.90;;;;;;5043321;28;19962;-78
2022/09/10 13:00:11;;;;;;;;;;;23.90;99.90;;;;;;5070387;28;19934;-75
2022/09/10 13:02:59;;;;;;;;;;;23.90;99.90;;;;;;5049873;28;19928;-76
2022/09/10 13:05:30;;;;;;;;;;;24.10;99.90;;;;;;5049689;28;20284;-78
2022/09/10 13:08:09;;;;;;;;;;;24.30;99.90;;;;;;5046278;28;19921;-76
2022/09/10 13:10:34;;;;;;;;;;;24.60;99.90;;;;;;5047005;28;19920;-80
2022/09/10 13:13:03;;;;;;;;;;;24.70;99.90;;;;;;5050679;28;19935;-72
2022/09/10 13:15:32;;;;;;;;;;;24.70;99.90;;;;;;5048699;28;19927;-71
2022/09/10 13:17:57;;;;;;;;;;;24.50;99.90;;;;;;5063146;28;19928;-74
2022/09/10 13:20:23;;;;;;;;;;;24.20;99.90;;;;;;5069745;28;19920;-73
2022/09/10 13:23:03;;;;;;;;;;;24.20;99.90;;;;;;5044195;28;19920;-73
2022/09/10 13:25:28;;;;;;;;;;;24.10;99.90;;;;;;5063540;28;19920;-76
2022/09/10 13:27:55;;;;;;;;;;;24.10;99.90;;;;;;5059021;28;19974;-71
2022/09/10 13:30:22;;;;;;;;;;;24.00;99.90;;;;;;5061840;28;19927;-72
2022/09/10 13:32:55;;;;;;;;;;;24.20;99.90;;;;;;5066981;28;19969;-71
2022/09/10 13:35:31;;;;;;;;;;;24.20;99.90;;;;;;5061614;28;20034;-72
2022/09/10 13:38:16;;;;;;;;;;;24.20;99.90;;;;;;5067883;28;19927;-71
2022/09/10 13:40:50;;;;;;;;;;;24.00;99.90;;;;;;5071720;28;19920;-71
2022/09/10 13:43:25;;;;;;;;;;;23.70;99.90;;;;;;5067690;28;19996;-73
2022/09/10 13:45:54;;;;;;;;;;;23.60;99.90;;;;;;5068745;28;19928;-74
2022/09/10 13:48:20;;;;;;;;;;;23.30;99.90;;;;;;5072233;28;19920;-72
2022/09/10 13:51:14;;;;;;;;;;;23.20;99.90;;;;;;5045647;28;19927;-72
2022/09/10 13:53:40;;;;;;;;;;;23.30;99.90;;;;;;5071820;28;20011;-72
2022/09/10 13:56:16;;;;;;;;;;;23.30;99.90;;;;;;5040088;28;20468;-77
2022/09/10 13:58:48;;;;;;;;;;;23.20;99.90;;;;;;5069851;28;19924;-72
2022/09/10 14:01:14;;;;;;;;;;;22.80;99.90;;;;;;5049381;28;19943;-70
2022/09/10 14:03:40;;;;;;;;;;;22.70;99.90;;;;;;5044353;28;20717;-71
2022/09/10 14:06:10;;;;;;;;;;;22.60;99.90;;;;;;5045196;28;19920;-72
2022/09/10 14:08:38;;;;;;;;;;;22.60;99.90;;;;;;5065129;28;19928;-72
2022/09/10 14:11:06;;;;;;;;;;;22.70;99.90;;;;;;5057851;28;19920;-73
2022/09/10 14:13:34;;;;;;;;;;;22.80;99.90;;;;;;5067511;28;20384;-73
2022/09/10 14:16:01;;;;;;;;;;;22.90;99.90;;;;;;5068159;28;20076;-71
2022/09/10 14:18:30;;;;;;;;;;;23.10;99.90;;;;;;5041235;28;19951;-71
2022/09/10 14:20:57;;;;;;;;;;;23.20;99.90;;;;;;5067786;28;19939;-74
2022/09/10 14:23:22;;;;;;;;;;;23.20;99.90;;;;;;5043753;28;19921;-71
2022/09/10 14:26:06;;;;;;;;;;;23.20;99.90;;;;;;5065093;28;19932;-69
2022/09/10 14:28:32;;;;;;;;;;;23.30;99.90;;;;;;5046747;28;19951;-71